Hlavní strana
METAR-TAF:

METAR-TAF

Letiště :

Yaoundé, Kamerun

zeměpisná šířka: 03-50N, zeměpisná délka: 011-31E, výška: 751 m

Aktuální stav počasí

Zpráva byla vytvořena před 3 hodinami a 17 minutami, v 09:00 UTC
vítr z různých směrů 1 kt
Teplota 27°C
Vlhkost vzduchu 79%
Tlak 1020 hPa
Viditelnost: 7000 m
Oblačno až skoro zataženo ve výšce 1300 ft

METAR: FKYS 260900Z VRB01KT 7000 BKN013 27/23 Q1020 BECMG BKN016

Čas: 13:17 (12:17 UTC)

Předpověď počasí

Zpráva byla vytvořena před 1 hodinou a 17 minutami, v 11:00 UTC
Předpověď platná od 26 v 12 UTC do 27 v 12 UTC
Západní vítr 6 kt
Viditelnost: 8000 m
Oblačno až skoro zataženo ve výšce 2000 ft
Dočasný
od 26 v 16 UTC do 26 v 24 UTC
bouřka
Pravděpodobnost 30%
od 26 v 18 UTC do 26 v 22 UTC
Viditelnost: 4000 m
bouřka, déšť
Změna
od 26 v 20 UTC do 26 v 22 UTC
Oblačno až skoro zataženo ve výšce 600 ft
Skoro jasno ve výšce 1600 ft, Cumulonimbus.

TAF: FKYS 261100Z 2612/2712 26006KT 8000 BKN020 TEMPO 2616/2624 TS PROB30 2618/2622 4000 TSRA BECMG 2620/2622 BKN006 FEW016CB

Stav a předpovědi počasí z více než 4 000 letišť (zprávy METAR a TAF).

Červené a žluté tečky na mapě představují dostupné meteorologické stanice.

Když kurzor umístíte na tečku, zobrazí se název stanice.

Pak kliknutím zobrazíte stav a předpověď počasí.

Chcete-li změnit mapu, kliknutím na zelené tlačítko se znaménkem +mapu přiblížíte, kliknutím na zelené tlačítko se znaménkem – mapu oddálíte a kliknutím na zelené šipky přejdete na sousední mapy.


METAR-TAF: